sensor_id;sensor_type;location;lat;lon;timestamp;P1;durP1;ratioP1;P2;durP2;ratioP2
6862;SDS011;3470;48.738;9.616;2023-03-01T00:01:06;27.73;;;16.67;;
6862;SDS011;3470;48.738;9.616;2023-03-01T00:03:33;23.40;;;16.03;;
6862;SDS011;3470;48.738;9.616;2023-03-01T00:06:00;24.63;;;15.93;;
6862;SDS011;3470;48.738;9.616;2023-03-01T00:08:26;25.03;;;16.20;;
6862;SDS011;3470;48.738;9.616;2023-03-01T00:11:02;23.20;;;15.93;;
6862;SDS011;3470;48.738;9.616;2023-03-01T00:13:33;23.80;;;15.53;;
6862;SDS011;3470;48.738;9.616;2023-03-01T00:16:03;27.03;;;17.07;;
6862;SDS011;3470;48.738;9.616;2023-03-01T00:18:30;26.67;;;16.47;;
6862;SDS011;3470;48.738;9.616;2023-03-01T00:20:56;25.20;;;16.07;;
6862;SDS011;3470;48.738;9.616;2023-03-01T00:23:21;23.20;;;16.17;;
6862;SDS011;3470;48.738;9.616;2023-03-01T00:25:47;22.43;;;14.97;;
6862;SDS011;3470;48.738;9.616;2023-03-01T00:28:13;24.53;;;16.17;;
6862;SDS011;3470;48.738;9.616;2023-03-01T00:30:39;28.70;;;16.40;;
6862;SDS011;3470;48.738;9.616;2023-03-01T00:33:08;25.87;;;16.13;;
6862;SDS011;3470;48.738;9.616;2023-03-01T00:35:33;23.90;;;16.93;;
6862;SDS011;3470;48.738;9.616;2023-03-01T00:38:00;25.77;;;15.67;;
6862;SDS011;3470;48.738;9.616;2023-03-01T00:40:27;21.67;;;14.50;;
6862;SDS011;3470;48.738;9.616;2023-03-01T00:42:53;23.60;;;15.63;;
6862;SDS011;3470;48.738;9.616;2023-03-01T00:45:19;26.00;;;16.63;;
6862;SDS011;3470;48.738;9.616;2023-03-01T18:34:46;20.77;;;13.33;;
6862;SDS011;3470;48.738;9.616;2023-03-01T18:37:12;18.60;;;13.43;;
6862;SDS011;3470;48.738;9.616;2023-03-01T18:39:38;22.90;;;14.83;;
6862;SDS011;3470;48.738;9.616;2023-03-01T18:42:05;20.07;;;13.63;;
6862;SDS011;3470;48.738;9.616;2023-03-01T18:44:31;22.00;;;14.47;;
6862;SDS011;3470;48.738;9.616;2023-03-01T18:46:57;16.27;;;12.80;;
6862;SDS011;3470;48.738;9.616;2023-03-01T18:49:23;19.73;;;14.00;;
6862;SDS011;3470;48.738;9.616;2023-03-01T18:51:50;18.77;;;13.57;;
6862;SDS011;3470;48.738;9.616;2023-03-01T18:54:15;18.70;;;13.30;;
6862;SDS011;3470;48.738;9.616;2023-03-01T18:56:41;20.47;;;13.87;;
6862;SDS011;3470;48.738;9.616;2023-03-01T18:59:07;18.87;;;14.27;;
6862;SDS011;3470;48.738;9.616;2023-03-01T19:01:33;19.77;;;13.83;;
6862;SDS011;3470;48.738;9.616;2023-03-01T19:03:58;19.33;;;14.13;;
6862;SDS011;3470;48.738;9.616;2023-03-01T19:06:28;20.83;;;14.80;;
6862;SDS011;3470;48.738;9.616;2023-03-01T19:08:57;20.30;;;14.10;;
6862;SDS011;3470;48.738;9.616;2023-03-01T19:11:23;22.30;;;14.70;;
6862;SDS011;3470;48.738;9.616;2023-03-01T19:13:51;21.30;;;14.90;;
6862;SDS011;3470;48.738;9.616;2023-03-01T19:16:19;24.73;;;15.17;;
6862;SDS011;3470;48.738;9.616;2023-03-01T19:18:46;25.67;;;15.20;;
6862;SDS011;3470;48.738;9.616;2023-03-01T19:21:14;23.13;;;15.43;;
6862;SDS011;3470;48.738;9.616;2023-03-01T19:23:41;21.23;;;14.93;;
6862;SDS011;3470;48.738;9.616;2023-03-01T19:26:08;22.40;;;15.07;;
6862;SDS011;3470;48.738;9.616;2023-03-01T19:28:36;21.07;;;14.73;;
6862;SDS011;3470;48.738;9.616;2023-03-01T19:31:03;26.23;;;16.37;;
6862;SDS011;3470;48.738;9.616;2023-03-01T19:33:31;21.20;;;15.43;;
6862;SDS011;3470;48.738;9.616;2023-03-01T19:35:58;21.03;;;15.83;;
6862;SDS011;3470;48.738;9.616;2023-03-01T19:38:24;24.73;;;16.37;;
6862;SDS011;3470;48.738;9.616;2023-03-01T19:40:50;23.60;;;16.73;;
6862;SDS011;3470;48.738;9.616;2023-03-01T19:43:16;23.87;;;16.53;;
6862;SDS011;3470;48.738;9.616;2023-03-01T19:45:42;23.10;;;16.37;;
6862;SDS011;3470;48.738;9.616;2023-03-01T19:48:10;23.43;;;16.30;;
6862;SDS011;3470;48.738;9.616;2023-03-01T19:50:36;22.57;;;16.33;;
6862;SDS011;3470;48.738;9.616;2023-03-01T19:53:02;27.67;;;17.20;;
6862;SDS011;3470;48.738;9.616;2023-03-01T19:55:28;22.30;;;16.97;;
6862;SDS011;3470;48.738;9.616;2023-03-01T19:57:54;26.70;;;18.33;;
6862;SDS011;3470;48.738;9.616;2023-03-01T20:00:20;25.47;;;16.67;;
6862;SDS011;3470;48.738;9.616;2023-03-01T20:02:45;27.67;;;17.93;;
6862;SDS011;3470;48.738;9.616;2023-03-01T20:05:11;27.77;;;18.23;;
6862;SDS011;3470;48.738;9.616;2023-03-01T20:07:36;31.63;;;18.80;;
6862;SDS011;3470;48.738;9.616;2023-03-01T20:10:02;26.27;;;18.47;;
6862;SDS011;3470;48.738;9.616;2023-03-01T20:12:28;26.00;;;16.40;;
6862;SDS011;3470;48.738;9.616;2023-03-01T20:14:54;22.90;;;17.40;;
6862;SDS011;3470;48.738;9.616;2023-03-01T20:17:21;25.00;;;17.20;;
6862;SDS011;3470;48.738;9.616;2023-03-01T20:19:47;24.70;;;18.10;;
6862;SDS011;3470;48.738;9.616;2023-03-01T20:22:13;26.63;;;17.63;;
6862;SDS011;3470;48.738;9.616;2023-03-01T20:24:42;25.63;;;18.00;;
6862;SDS011;3470;48.738;9.616;2023-03-01T20:27:07;28.87;;;17.60;;
6862;SDS011;3470;48.738;9.616;2023-03-01T20:29:33;28.60;;;18.60;;
6862;SDS011;3470;48.738;9.616;2023-03-01T20:31:59;26.13;;;18.30;;
6862;SDS011;3470;48.738;9.616;2023-03-01T20:34:24;24.33;;;17.47;;
6862;SDS011;3470;48.738;9.616;2023-03-01T20:36:50;27.27;;;17.87;;
6862;SDS011;3470;48.738;9.616;2023-03-01T20:39:16;25.67;;;18.90;;
6862;SDS011;3470;48.738;9.616;2023-03-01T20:41:41;24.03;;;17.27;;
6862;SDS011;3470;48.738;9.616;2023-03-01T20:44:07;28.33;;;19.77;;
6862;SDS011;3470;48.738;9.616;2023-03-01T20:46:33;29.20;;;19.57;;
6862;SDS011;3470;48.738;9.616;2023-03-01T20:48:59;31.60;;;20.33;;
6862;SDS011;3470;48.738;9.616;2023-03-01T20:51:25;26.30;;;17.87;;
6862;SDS011;3470;48.738;9.616;2023-03-01T20:53:51;28.90;;;18.67;;
6862;SDS011;3470;48.738;9.616;2023-03-01T20:56:18;28.40;;;19.07;;
6862;SDS011;3470;48.738;9.616;2023-03-01T20:58:45;28.90;;;19.10;;
6862;SDS011;3470;48.738;9.616;2023-03-01T21:01:14;27.50;;;18.57;;
6862;SDS011;3470;48.738;9.616;2023-03-01T21:03:41;26.70;;;18.57;;
6862;SDS011;3470;48.738;9.616;2023-03-01T21:06:07;26.83;;;18.63;;
6862;SDS011;3470;48.738;9.616;2023-03-01T21:08:36;28.43;;;19.17;;
6862;SDS011;3470;48.738;9.616;2023-03-01T21:11:02;31.20;;;20.43;;
6862;SDS011;3470;48.738;9.616;2023-03-01T21:13:29;26.40;;;18.53;;
6862;SDS011;3470;48.738;9.616;2023-03-01T21:15:56;25.13;;;19.13;;
6862;SDS011;3470;48.738;9.616;2023-03-01T21:18:27;30.43;;;19.73;;
6862;SDS011;3470;48.738;9.616;2023-03-01T21:20:57;28.83;;;19.17;;
6862;SDS011;3470;48.738;9.616;2023-03-01T21:23:23;26.53;;;19.20;;
6862;SDS011;3470;48.738;9.616;2023-03-01T21:26:02;27.90;;;18.60;;
6862;SDS011;3470;48.738;9.616;2023-03-01T21:28:29;29.03;;;20.00;;
6862;SDS011;3470;48.738;9.616;2023-03-01T21:33:36;27.77;;;18.97;;
6862;SDS011;3470;48.738;9.616;2023-03-01T21:36:03;28.53;;;18.97;;
6862;SDS011;3470;48.738;9.616;2023-03-01T21:38:32;29.77;;;19.67;;
6862;SDS011;3470;48.738;9.616;2023-03-01T21:41:09;28.03;;;18.63;;
6862;SDS011;3470;48.738;9.616;2023-03-01T21:43:45;32.97;;;19.53;;
6862;SDS011;3470;48.738;9.616;2023-03-01T21:46:13;27.57;;;18.80;;
6862;SDS011;3470;48.738;9.616;2023-03-01T21:48:43;27.93;;;19.47;;
6862;SDS011;3470;48.738;9.616;2023-03-01T21:51:10;28.27;;;19.77;;
6862;SDS011;3470;48.738;9.616;2023-03-01T21:53:37;33.93;;;20.30;;
6862;SDS011;3470;48.738;9.616;2023-03-01T21:56:03;28.00;;;18.37;;
6862;SDS011;3470;48.738;9.616;2023-03-01T21:58:29;29.47;;;19.33;;
